Phrae Airport
VTCP : now visible

Aeroporto :











RITROVATECI SU...

 
LOGIN :

Iscrizione | Disclaimer

   EN    FR    IT 

 









Sommario :    VFR   VFR Marginale   IFR   IFR Intensivo   IFR Molto Intensivo
Visibilità : 
Base nubi : 
>= 8 km
>= 3000ft
5 / 8 km
1000 / 3000 ft
1500m / 5 km
500 / 1000 ft
800 / 1500m
200 / 500 ft
< 800m
< 200 ft
Simboli :   Temporali  Nebbia  Neve Forte  Precipitazioni Forti  Vento > 20 kt






- Altitudine del aeroporto : 538 ft
- Codice IATA : PRH


VTCP - Phrae

ULTIMO METAR :
  • 011100Z 17003KT 080V210 2500 HZ NSC 37/14 Q1004 NOSIG

METARs OBSOLETI :
  • 011000Z 18005KT 140V200 2500 HZ NSC 39/16 Q1004 NOSIG
  • 010900Z 19007KT 110V220 3000 HZ NSC 41/16 Q1004 NOSIG

TAF TAF VTCP
Valido dal 01 a 12 ore il 02 a 12 ore UTC


011100Z 0112/0212 22005KT 4000 HZ NSC
BECMG 0200/0202 2000 BR
BECMG 0204/0206 6000 NSW



MetMap, La meteo Aeronautica in un colpo d'occhio ! - Copyright ORBIFLY Dicembre 2007 - Disclaimer

ORBIFLY MET'MAP TEAM :

Programmazione e sviluppo : Alexandra Zaïnal
Concezione : Baudouin d'Aumeries
Aiuto per la programmazione : Marc-Olivier Méhu
Supporto tecnico e logistico : Manuel Goepfert
Aiuto per la traduzione : Arnaldo La Scala

Contatto : metmap@orbifly.com




FONTI E CREDITI :

   NOAA       Earth
Advisory